createdAt,value
2023-04-07T00:00:06.327Z,10.10
2023-04-07T00:02:33.195Z,10.10
2023-04-07T00:05:00.305Z,10.00
2023-04-07T00:07:27.014Z,10.10
2023-04-07T00:09:53.638Z,10.10
2023-04-07T00:12:20.672Z,10.00
2023-04-07T00:14:47.300Z,10.00
2023-04-07T00:17:13.962Z,10.00
2023-04-07T00:19:40.595Z,10.00
2023-04-07T00:22:07.212Z,10.00
2023-04-07T00:24:34.824Z,10.00
2023-04-07T00:27:02.253Z,10.00
2023-04-07T00:29:28.861Z,10.00
2023-04-07T00:31:55.987Z,10.00
2023-04-07T00:34:22.569Z,10.00
2023-04-07T00:36:52.240Z,10.00
2023-04-07T00:39:19.467Z,10.00
2023-04-07T00:41:46.714Z,10.00
2023-04-07T00:44:14.181Z,10.00
2023-04-07T00:46:41.690Z,10.00
2023-04-07T00:49:11.083Z,10.00
2023-04-07T00:51:38.082Z,9.90
2023-04-07T00:54:05.556Z,10.00
2023-04-07T00:56:32.398Z,10.00
2023-04-07T00:58:59.140Z,9.90
2023-04-07T01:01:32.948Z,9.90
2023-04-07T01:04:09.957Z,9.90
2023-04-07T01:06:40.591Z,9.90
2023-04-07T01:09:19.321Z,9.90
2023-04-07T01:11:55.001Z,9.90
2023-04-07T01:14:23.715Z,9.90
2023-04-07T01:16:53.837Z,9.90
2023-04-07T01:19:36.700Z,9.90
2023-04-07T01:22:21.218Z,9.90
2023-04-07T01:25:09.487Z,9.90
2023-04-07T01:27:39.033Z,9.80
2023-04-07T01:30:10.938Z,9.80
2023-04-07T01:32:39.612Z,9.80
2023-04-07T01:35:10.786Z,9.80
2023-04-07T01:37:38.713Z,9.80
2023-04-07T01:40:07.874Z,9.80
2023-04-07T01:42:36.877Z,9.80
2023-04-07T01:45:04.796Z,9.80
2023-04-07T01:47:32.803Z,9.80
2023-04-07T01:50:04.618Z,9.80
2023-04-07T01:52:32.640Z,9.80
2023-04-07T01:54:59.375Z,9.80
2023-04-07T01:57:26.753Z,9.80
2023-04-07T01:59:53.770Z,9.80
2023-04-07T02:02:20.625Z,9.70
2023-04-07T02:04:56.295Z,9.70
2023-04-07T02:08:03.408Z,9.70
2023-04-07T02:10:33.138Z,9.70
2023-04-07T02:13:01.788Z,9.70
2023-04-07T02:15:29.243Z,9.70
2023-04-07T02:17:58.450Z,9.70
2023-04-07T02:20:25.509Z,9.70
2023-04-07T02:22:52.289Z,9.70
2023-04-07T02:25:30.343Z,9.70
2023-04-07T02:27:59.473Z,9.70
2023-04-07T02:30:26.370Z,9.70
2023-04-07T02:32:53.501Z,9.60
2023-04-07T02:35:20.527Z,9.60
2023-04-07T02:37:47.554Z,9.60
2023-04-07T02:40:14.654Z,9.60
2023-04-07T02:42:41.719Z,9.60
2023-04-07T02:45:10.074Z,9.60
2023-04-07T02:47:37.827Z,9.60
2023-04-07T02:50:05.100Z,9.60
2023-04-07T02:52:31.669Z,9.60
2023-04-07T02:54:58.348Z,9.60
2023-04-07T02:57:24.922Z,9.60
2023-04-07T02:59:51.542Z,9.60
2023-04-07T03:02:18.331Z,9.60
2023-04-07T03:04:44.986Z,9.60
2023-04-07T03:07:11.705Z,9.60
2023-04-07T03:09:38.357Z,9.60
2023-04-07T03:12:05.094Z,9.60
2023-04-07T03:14:34.268Z,9.50
2023-04-07T03:17:00.903Z,9.50
2023-04-07T03:19:27.500Z,9.50
2023-04-07T03:21:54.237Z,9.50
2023-04-07T03:24:20.797Z,9.50
2023-04-07T03:26:47.676Z,9.50
2023-04-07T03:29:14.314Z,9.50
2023-04-07T03:31:40.952Z,9.50
2023-04-07T03:34:08.452Z,9.50
2023-04-07T03:36:35.221Z,9.50
2023-04-07T03:39:01.840Z,9.50
2023-04-07T03:41:28.494Z,9.50
2023-04-07T03:43:55.162Z,9.40
2023-04-07T03:46:21.902Z,9.40
2023-04-07T03:48:48.632Z,9.40
2023-04-07T03:51:15.591Z,9.40
2023-04-07T03:53:42.191Z,9.40
2023-04-07T03:56:09.012Z,9.40
2023-04-07T03:58:36.011Z,9.40
2023-04-07T04:01:03.360Z,9.40
2023-04-07T04:03:30.159Z,9.40
2023-04-07T04:05:56.856Z,9.40
2023-04-07T04:08:23.998Z,9.30
2023-04-07T04:10:50.702Z,9.30
2023-04-07T04:13:17.360Z,9.30
2023-04-07T04:15:44.014Z,9.30
2023-04-07T04:18:10.868Z,9.30
2023-04-07T04:20:37.933Z,9.30
2023-04-07T04:23:04.562Z,9.30
2023-04-07T04:25:31.197Z,9.30
2023-04-07T04:27:57.870Z,9.30
2023-04-07T04:30:24.517Z,9.30
2023-04-07T04:32:51.255Z,9.30
2023-04-07T04:35:17.951Z,9.30
2023-04-07T04:37:44.593Z,9.30
2023-04-07T04:40:11.844Z,9.20
2023-04-07T04:42:38.490Z,9.20
2023-04-07T04:45:05.904Z,9.20
2023-04-07T04:47:32.549Z,9.20
2023-04-07T04:49:59.293Z,9.20
2023-04-07T04:52:27.325Z,9.20
2023-04-07T04:54:53.972Z,9.20
2023-04-07T04:57:20.679Z,9.20
2023-04-07T04:59:47.401Z,9.20
2023-04-07T05:02:14.038Z,9.20
2023-04-07T05:04:40.780Z,9.20
2023-04-07T05:07:07.514Z,9.20
2023-04-07T05:09:34.166Z,9.20
2023-04-07T05:12:01.925Z,9.20
2023-04-07T05:14:28.678Z,9.20
2023-04-07T05:16:55.320Z,9.20
2023-04-07T05:19:21.963Z,9.20
2023-04-07T05:21:48.544Z,9.20
2023-04-07T05:24:15.155Z,9.10
2023-04-07T05:26:41.763Z,9.10
2023-04-07T05:29:08.373Z,9.10
2023-04-07T05:31:37.422Z,9.10
2023-04-07T05:34:04.222Z,9.10
2023-04-07T05:36:31.916Z,9.10
2023-04-07T05:38:58.611Z,9.10
2023-04-07T05:41:25.190Z,9.10
2023-04-07T05:43:52.104Z,9.10
2023-04-07T05:46:19.113Z,9.10
2023-04-07T05:48:45.925Z,9.10
2023-04-07T05:51:12.529Z,9.10
2023-04-07T05:53:39.535Z,9.10
2023-04-07T05:56:06.208Z,9.10
2023-04-07T05:58:33.080Z,9.10
2023-04-07T06:00:59.727Z,9.10
2023-04-07T06:03:26.714Z,9.20
2023-04-07T06:05:53.333Z,9.20
2023-04-07T06:08:20.057Z,9.20
2023-04-07T06:10:46.831Z,9.20
2023-04-07T06:13:13.592Z,9.20
2023-04-07T06:15:40.502Z,9.20
2023-04-07T06:18:07.159Z,9.20
2023-04-07T06:20:33.828Z,9.20
2023-04-07T06:23:00.419Z,9.20
2023-04-07T06:25:27.025Z,9.20
2023-04-07T06:27:55.656Z,9.20
2023-04-07T06:30:22.342Z,9.30
2023-04-07T06:32:49.003Z,9.30
2023-04-07T06:35:16.090Z,9.30
2023-04-07T06:37:42.778Z,9.30
2023-04-07T06:40:09.797Z,9.30
2023-04-07T06:42:36.500Z,9.30
2023-04-07T06:45:03.402Z,9.30
2023-04-07T06:47:29.944Z,9.30
2023-04-07T06:49:56.463Z,9.30
2023-04-07T06:52:23.073Z,9.40
2023-04-07T06:54:49.660Z,9.40
2023-04-07T06:57:16.274Z,9.40
2023-04-07T06:59:43.026Z,9.40
2023-04-07T07:02:09.844Z,9.40
2023-04-07T07:04:37.073Z,9.40
2023-04-07T07:07:03.962Z,9.50
2023-04-07T07:09:30.695Z,9.50
2023-04-07T07:11:57.686Z,9.50
2023-04-07T07:14:24.267Z,9.50
2023-04-07T07:16:50.979Z,9.50
2023-04-07T07:19:17.571Z,9.50
2023-04-07T07:21:44.221Z,9.50
2023-04-07T07:24:11.004Z,9.60
2023-04-07T07:26:37.625Z,9.60
2023-04-07T07:29:04.190Z,9.60
2023-04-07T07:31:31.496Z,9.60
2023-04-07T07:33:58.302Z,9.60
2023-04-07T07:36:24.946Z,9.60
2023-04-07T07:38:51.954Z,9.70
2023-04-07T07:41:18.753Z,9.70
2023-04-07T07:43:46.566Z,9.70
2023-04-07T07:46:13.322Z,9.70
2023-04-07T07:48:39.931Z,9.70
2023-04-07T07:51:06.650Z,9.70
2023-04-07T07:53:33.319Z,9.80
2023-04-07T07:56:00.135Z,9.80
2023-04-07T07:58:26.733Z,9.80
2023-04-07T08:00:53.438Z,9.90
2023-04-07T08:03:22.685Z,9.90
2023-04-07T08:05:49.903Z,9.90
2023-04-07T08:08:16.486Z,9.90
2023-04-07T08:10:43.065Z,9.90
2023-04-07T08:13:09.694Z,9.90
2023-04-07T08:15:36.288Z,10.00
2023-04-07T08:18:04.838Z,10.00
2023-04-07T08:20:31.872Z,10.00
2023-04-07T08:22:58.840Z,10.00
2023-04-07T08:25:25.873Z,10.00
2023-04-07T08:27:52.431Z,10.10
2023-04-07T08:30:21.089Z,10.10
2023-04-07T08:32:47.884Z,10.10
2023-04-07T08:35:14.459Z,10.10
2023-04-07T08:37:42.294Z,10.20
2023-04-07T08:40:09.432Z,10.20
2023-04-07T08:42:41.608Z,10.20
2023-04-07T08:45:09.837Z,10.20
2023-04-07T08:47:37.648Z,10.20
2023-04-07T08:50:09.384Z,10.30
2023-04-07T08:52:42.232Z,10.30
2023-04-07T08:55:09.547Z,10.30
2023-04-07T08:57:36.882Z,10.30
2023-04-07T09:00:07.775Z,10.30
2023-04-07T09:02:46.707Z,10.40
2023-04-07T09:05:16.948Z,10.40
2023-04-07T09:07:43.969Z,10.50
2023-04-07T09:10:11.307Z,10.50
2023-04-07T09:12:38.397Z,10.50
2023-04-07T09:15:08.921Z,10.50
2023-04-07T09:17:35.926Z,10.60
2023-04-07T09:20:03.381Z,10.50
2023-04-07T09:22:40.141Z,10.60
2023-04-07T09:25:22.968Z,10.70
2023-04-07T09:28:04.409Z,10.70
2023-04-07T09:30:32.813Z,10.70
2023-04-07T09:33:00.612Z,10.80
2023-04-07T09:35:28.844Z,10.80
2023-04-07T09:38:08.798Z,10.80
2023-04-07T09:40:37.431Z,10.90
2023-04-07T09:43:05.174Z,10.90
2023-04-07T09:45:35.850Z,10.90
2023-04-07T09:48:07.960Z,11.00
2023-04-07T09:50:49.394Z,11.00
2023-04-07T09:53:16.823Z,11.00
2023-04-07T09:55:44.255Z,11.10
2023-04-07T09:58:14.577Z,11.20
2023-04-07T10:00:42.192Z,11.20
2023-04-07T10:03:09.289Z,11.20
2023-04-07T10:05:39.005Z,11.20
2023-04-07T10:08:06.727Z,11.20
2023-04-07T10:10:34.638Z,11.20
2023-04-07T10:13:04.233Z,11.30
2023-04-07T10:15:31.022Z,11.30
2023-04-07T10:17:58.701Z,11.40
2023-04-07T10:20:25.766Z,11.40
2023-04-07T10:22:57.734Z,11.50
2023-04-07T10:25:26.336Z,11.50
2023-04-07T10:27:58.315Z,11.60
2023-04-07T10:30:32.923Z,11.50
2023-04-07T10:32:59.710Z,11.50
2023-04-07T10:35:27.019Z,11.50
2023-04-07T10:38:13.482Z,11.60
2023-04-07T10:40:41.487Z,11.80
2023-04-07T10:43:11.257Z,11.80
2023-04-07T10:45:50.091Z,11.80
2023-04-07T10:48:18.337Z,11.90
2023-04-07T10:50:46.890Z,11.90
2023-04-07T10:53:15.352Z,11.90
2023-04-07T10:55:46.340Z,12.00
2023-04-07T10:58:22.948Z,12.20
2023-04-07T11:00:58.878Z,12.10
2023-04-07T11:03:26.255Z,12.20
2023-04-07T11:05:53.106Z,12.30
2023-04-07T11:08:38.654Z,12.30
2023-04-07T11:11:10.227Z,12.30
2023-04-07T11:13:43.959Z,12.30
2023-04-07T11:16:10.775Z,12.50
2023-04-07T11:18:37.980Z,12.40
2023-04-07T11:21:08.340Z,12.50
2023-04-07T11:23:46.103Z,12.60
2023-04-07T11:26:14.903Z,12.50
2023-04-07T11:28:55.730Z,12.50
2023-04-07T11:31:23.708Z,12.50
2023-04-07T11:33:59.378Z,12.60
2023-04-07T11:36:38.459Z,12.70
2023-04-07T11:39:05.441Z,12.70
2023-04-07T11:41:33.893Z,12.70
2023-04-07T11:44:05.164Z,12.80
2023-04-07T11:46:31.939Z,12.80
2023-04-07T11:49:12.756Z,12.80
2023-04-07T11:51:39.580Z,12.80
2023-04-07T11:54:06.425Z,12.90
2023-04-07T11:56:46.154Z,12.80
2023-04-07T11:59:26.015Z,12.90
2023-04-07T12:01:56.162Z,13.00
2023-04-07T12:04:24.621Z,13.00
2023-04-07T12:06:51.694Z,13.00
2023-04-07T12:09:29.462Z,13.00
2023-04-07T12:11:57.783Z,13.00
2023-04-07T12:14:25.758Z,13.00
2023-04-07T12:16:53.362Z,13.00
2023-04-07T12:19:20.086Z,13.10
2023-04-07T12:21:46.973Z,13.10
2023-04-07T12:24:13.511Z,13.00
2023-04-07T12:26:40.344Z,13.10
2023-04-07T12:29:07.177Z,13.00
2023-04-07T12:31:34.519Z,13.00
2023-04-07T12:34:01.533Z,13.10
2023-04-07T12:36:28.084Z,13.00
2023-04-07T12:38:54.847Z,13.10
2023-04-07T12:41:21.462Z,13.10
2023-04-07T12:43:48.497Z,13.10
2023-04-07T12:46:15.527Z,13.10
2023-04-07T12:48:42.261Z,13.10
2023-04-07T12:51:08.969Z,13.10
2023-04-07T12:53:35.595Z,13.10
2023-04-07T12:56:02.476Z,13.10
2023-04-07T12:58:29.258Z,13.10
2023-04-07T13:00:56.785Z,13.00
2023-04-07T13:03:23.792Z,13.10
2023-04-07T13:05:50.825Z,13.10
2023-04-07T13:08:17.486Z,13.10
2023-04-07T13:10:44.334Z,13.10
2023-04-07T13:13:11.279Z,13.10
2023-04-07T13:15:37.934Z,13.10
2023-04-07T13:18:04.598Z,13.10
2023-04-07T13:20:31.410Z,13.10
2023-04-07T13:23:07.644Z,13.10
2023-04-07T13:25:36.511Z,13.10
2023-04-07T13:28:03.478Z,13.10
2023-04-07T13:30:30.169Z,13.10
2023-04-07T13:32:57.456Z,13.10
2023-04-07T13:35:24.200Z,13.10
2023-04-07T13:37:50.897Z,13.10
2023-04-07T13:40:19.868Z,13.10
2023-04-07T13:42:46.544Z,13.20
2023-04-07T13:45:13.233Z,13.20
2023-04-07T13:47:39.960Z,13.20
2023-04-07T13:50:07.181Z,13.20
2023-04-07T13:52:35.546Z,13.20
2023-04-07T13:55:04.376Z,13.20
2023-04-07T13:57:31.425Z,13.20
2023-04-07T13:59:58.217Z,13.30
2023-04-07T14:02:28.026Z,13.40
2023-04-07T14:04:54.812Z,13.50
2023-04-07T14:07:22.943Z,13.40
2023-04-07T14:09:49.870Z,13.50
2023-04-07T14:12:16.494Z,13.50
2023-04-07T14:14:43.075Z,13.50
2023-04-07T14:17:09.669Z,13.50
2023-04-07T14:19:36.369Z,13.50
2023-04-07T14:22:03.010Z,13.50
2023-04-07T14:24:29.602Z,13.50
2023-04-07T14:26:56.249Z,13.50
2023-04-07T14:29:23.610Z,13.50
2023-04-07T14:31:51.524Z,13.60
2023-04-07T14:34:18.100Z,13.60
2023-04-07T14:36:54.788Z,13.80
2023-04-07T14:39:22.715Z,13.80
2023-04-07T14:41:49.340Z,13.80
2023-04-07T14:44:16.249Z,13.90
2023-04-07T14:46:43.038Z,14.00
2023-04-07T14:49:10.431Z,14.00
2023-04-07T14:51:37.125Z,14.10
2023-04-07T14:54:03.812Z,14.20
2023-04-07T14:56:30.614Z,14.10
2023-04-07T14:58:57.344Z,14.20
2023-04-07T15:01:24.139Z,14.20
2023-04-07T15:03:53.936Z,14.20
2023-04-07T15:06:20.951Z,14.20
2023-04-07T15:08:47.759Z,14.30
2023-04-07T15:11:14.446Z,14.20
2023-04-07T15:13:41.095Z,14.30
2023-04-07T15:16:14.994Z,14.20
2023-04-07T15:18:44.552Z,14.30
2023-04-07T15:21:12.148Z,14.30
2023-04-07T15:23:38.947Z,14.30
2023-04-07T15:26:06.446Z,14.40
2023-04-07T15:28:33.164Z,14.40
2023-04-07T15:31:01.281Z,14.40
2023-04-07T15:33:28.337Z,14.40
2023-04-07T15:35:56.084Z,14.40
2023-04-07T15:38:22.674Z,14.40
2023-04-07T15:40:49.392Z,14.40
2023-04-07T15:43:16.326Z,14.40
2023-04-07T15:45:44.423Z,14.40
2023-04-07T15:48:12.156Z,14.40
2023-04-07T15:50:38.912Z,14.40
2023-04-07T15:53:06.119Z,14.40
2023-04-07T15:55:36.566Z,14.40
2023-04-07T15:58:04.109Z,14.40
2023-04-07T16:00:33.640Z,14.40
2023-04-07T16:03:02.384Z,14.30
2023-04-07T16:05:29.576Z,14.40
2023-04-07T16:07:56.472Z,14.40
2023-04-07T16:10:23.787Z,14.30
2023-04-07T16:12:50.638Z,14.30
2023-04-07T16:15:28.946Z,14.30
2023-04-07T16:18:08.351Z,14.30
2023-04-07T16:20:35.029Z,14.30
2023-04-07T16:23:01.879Z,14.30
2023-04-07T16:25:28.570Z,14.30
2023-04-07T16:27:55.298Z,14.30
2023-04-07T16:30:22.195Z,14.30
2023-04-07T16:32:48.842Z,14.30
2023-04-07T16:35:16.213Z,14.30
2023-04-07T16:37:43.610Z,14.30
2023-04-07T16:40:11.001Z,14.20
2023-04-07T16:42:37.800Z,14.20
2023-04-07T16:45:05.176Z,14.20
2023-04-07T16:47:32.135Z,14.20
2023-04-07T16:49:59.431Z,14.20
2023-04-07T16:52:26.612Z,14.20
2023-04-07T16:54:53.507Z,14.20
2023-04-07T16:57:20.120Z,14.10
2023-04-07T16:59:47.318Z,14.10
2023-04-07T17:02:16.822Z,14.10
2023-04-07T17:04:44.284Z,14.10
2023-04-07T17:07:12.019Z,14.00
2023-04-07T17:09:39.345Z,14.00
2023-04-07T17:12:06.347Z,14.00
2023-04-07T17:14:33.628Z,14.00
2023-04-07T17:17:00.492Z,14.00
2023-04-07T17:19:27.397Z,13.90
2023-04-07T17:21:54.068Z,13.90
2023-04-07T17:24:22.609Z,13.90
2023-04-07T17:26:49.520Z,13.90
2023-04-07T17:29:17.029Z,13.90
2023-04-07T17:31:43.855Z,13.80
2023-04-07T17:34:11.320Z,13.80
2023-04-07T17:36:38.201Z,13.70
2023-04-07T17:39:05.522Z,13.70
2023-04-07T17:41:35.605Z,13.70
2023-04-07T17:44:02.346Z,13.70
2023-04-07T17:46:29.498Z,13.60
2023-04-07T17:48:58.927Z,13.60
2023-04-07T17:51:26.490Z,13.60
2023-04-07T17:53:54.213Z,13.50
2023-04-07T17:56:21.171Z,13.50
2023-04-07T17:58:48.029Z,13.50
2023-04-07T18:01:15.794Z,13.50
2023-04-07T18:03:42.843Z,13.40
2023-04-07T18:06:09.717Z,13.40
2023-04-07T18:08:36.623Z,13.40
2023-04-07T18:11:04.793Z,13.40
2023-04-07T18:13:33.251Z,13.30
2023-04-07T18:16:00.721Z,13.30
2023-04-07T18:18:27.492Z,13.30
2023-04-07T18:20:54.190Z,13.20
2023-04-07T18:23:20.839Z,13.20
2023-04-07T18:25:47.663Z,13.20
2023-04-07T18:28:14.307Z,13.20
2023-04-07T18:30:42.037Z,13.10
2023-04-07T18:33:09.131Z,13.10
2023-04-07T18:35:36.051Z,13.10
2023-04-07T18:38:04.688Z,13.00
2023-04-07T18:40:33.436Z,13.00
2023-04-07T18:43:00.344Z,13.00
2023-04-07T18:45:26.971Z,12.90
2023-04-07T18:47:53.645Z,12.90
2023-04-07T18:50:20.478Z,12.80
2023-04-07T18:52:47.145Z,12.80
2023-04-07T18:55:14.073Z,12.80
2023-04-07T18:57:41.250Z,12.70
2023-04-07T19:00:08.733Z,12.70
2023-04-07T19:02:35.585Z,12.70
2023-04-07T19:05:02.341Z,12.60
2023-04-07T19:07:28.887Z,12.60
2023-04-07T19:09:55.578Z,12.60
2023-04-07T19:12:22.608Z,12.50
2023-04-07T19:14:49.400Z,12.50
2023-04-07T19:17:16.534Z,12.50
2023-04-07T19:19:43.159Z,12.40
2023-04-07T19:22:10.060Z,12.40
2023-04-07T19:24:36.882Z,12.40
2023-04-07T19:27:04.260Z,12.30
2023-04-07T19:29:31.414Z,12.30
2023-04-07T19:31:58.049Z,12.30
2023-04-07T19:34:24.666Z,12.30
2023-04-07T19:36:51.313Z,12.20
2023-04-07T19:39:17.951Z,12.20
2023-04-07T19:41:44.640Z,12.20
2023-04-07T19:44:11.533Z,12.10
2023-04-07T19:46:38.148Z,12.10
2023-04-07T19:49:04.756Z,12.10
2023-04-07T19:51:31.386Z,12.10
2023-04-07T19:53:58.004Z,12.10
2023-04-07T19:56:25.136Z,12.00
2023-04-07T19:58:51.882Z,12.00
2023-04-07T20:01:19.220Z,12.00
2023-04-07T20:03:46.797Z,11.90
2023-04-07T20:06:15.262Z,11.90
2023-04-07T20:08:42.679Z,11.90
2023-04-07T20:11:13.404Z,11.90
2023-04-07T20:13:41.296Z,11.80
2023-04-07T20:16:08.355Z,11.80
2023-04-07T20:18:34.990Z,11.80
2023-04-07T20:21:02.883Z,11.80
2023-04-07T20:23:29.560Z,11.80
2023-04-07T20:25:56.479Z,11.70
2023-04-07T20:28:24.099Z,11.70
2023-04-07T20:30:51.500Z,11.70
2023-04-07T20:33:18.403Z,11.70
2023-04-07T20:35:45.065Z,11.70
2023-04-07T20:38:11.683Z,11.60
2023-04-07T20:40:38.447Z,11.60
2023-04-07T20:43:06.034Z,11.60
2023-04-07T20:45:33.312Z,11.60
2023-04-07T20:48:00.238Z,11.60
2023-04-07T20:50:27.678Z,11.50
2023-04-07T20:52:54.525Z,11.50
2023-04-07T20:55:21.707Z,11.50
2023-04-07T20:57:48.570Z,11.50
2023-04-07T21:00:17.207Z,11.50
2023-04-07T21:02:45.136Z,11.50
2023-04-07T21:05:11.862Z,11.50
2023-04-07T21:07:38.543Z,11.40
2023-04-07T21:10:05.844Z,11.40
2023-04-07T21:12:32.519Z,11.40
2023-04-07T21:14:59.766Z,11.40
2023-04-07T21:17:26.365Z,11.40
2023-04-07T21:19:52.972Z,11.30
2023-04-07T21:22:19.645Z,11.30
2023-04-07T21:24:46.387Z,11.30
2023-04-07T21:27:13.736Z,11.30
2023-04-07T21:29:43.084Z,11.30
2023-04-07T21:32:10.449Z,11.30
2023-04-07T21:34:37.109Z,11.20
2023-04-07T21:37:03.777Z,11.20
2023-04-07T21:39:30.430Z,11.20
2023-04-07T21:42:01.645Z,11.20
2023-04-07T21:44:28.207Z,11.20
2023-04-07T21:46:54.840Z,11.20
2023-04-07T21:49:22.507Z,11.20
2023-04-07T21:51:49.271Z,11.10
2023-04-07T21:54:16.457Z,11.10
2023-04-07T21:56:57.463Z,11.10
2023-04-07T21:59:24.036Z,11.10
2023-04-07T22:01:50.750Z,11.10
2023-04-07T22:04:17.861Z,11.10
2023-04-07T22:06:44.542Z,11.10
2023-04-07T22:09:11.790Z,11.10
2023-04-07T22:11:38.394Z,11.00
2023-04-07T22:14:05.351Z,11.00
2023-04-07T22:16:32.108Z,11.00
2023-04-07T22:18:59.029Z,11.00
2023-04-07T22:21:25.699Z,11.00
2023-04-07T22:23:52.363Z,11.00
2023-04-07T22:26:19.113Z,11.00
2023-04-07T22:28:45.753Z,10.90
2023-04-07T22:31:12.676Z,10.90
2023-04-07T22:33:39.453Z,10.90
2023-04-07T22:36:06.224Z,10.90
2023-04-07T22:38:32.839Z,10.90
2023-04-07T22:40:59.568Z,10.90
2023-04-07T22:43:26.188Z,10.90
2023-04-07T22:45:52.830Z,10.90
2023-04-07T22:48:19.498Z,10.90
2023-04-07T22:50:46.492Z,10.80
2023-04-07T22:53:13.086Z,10.80
2023-04-07T22:55:42.471Z,10.80
2023-04-07T22:58:09.114Z,10.80
2023-04-07T23:00:35.811Z,10.80
2023-04-07T23:03:02.770Z,10.80
2023-04-07T23:05:29.411Z,10.80
2023-04-07T23:07:56.363Z,10.80
2023-04-07T23:10:23.057Z,10.80
2023-04-07T23:12:52.822Z,10.70
2023-04-07T23:15:19.640Z,10.70
2023-04-07T23:17:46.282Z,10.70
2023-04-07T23:20:13.164Z,10.70
2023-04-07T23:22:39.725Z,10.70
2023-04-07T23:25:07.020Z,10.60
2023-04-07T23:27:33.715Z,10.60
2023-04-07T23:30:00.323Z,10.60
2023-04-07T23:32:27.114Z,10.60
2023-04-07T23:34:53.736Z,10.60
2023-04-07T23:37:20.329Z,10.60
2023-04-07T23:39:47.126Z,10.60
2023-04-07T23:42:14.799Z,10.60
2023-04-07T23:44:41.454Z,10.60
2023-04-07T23:47:08.056Z,10.50
2023-04-07T23:49:34.659Z,10.50
2023-04-07T23:52:01.809Z,10.50
2023-04-07T23:54:28.456Z,10.40
2023-04-07T23:56:55.046Z,10.40
2023-04-07T23:59:21.648Z,10.40
